createdAt,value
2022-09-27T00:01:37.622Z,11.86
2022-09-27T00:06:40.865Z,11.85
2022-09-27T00:11:39.584Z,11.84
2022-09-27T00:16:39.643Z,11.83
2022-09-27T00:21:39.660Z,11.82
2022-09-27T00:26:39.598Z,11.79
2022-09-27T00:31:39.719Z,11.75
2022-09-27T00:36:39.764Z,11.71
2022-09-27T00:41:39.854Z,11.68
2022-09-27T00:46:39.843Z,11.67
2022-09-27T00:51:40.068Z,11.66
2022-09-27T00:56:39.714Z,11.66
2022-09-27T01:01:39.970Z,11.67
2022-09-27T01:06:39.692Z,11.69
2022-09-27T01:11:39.581Z,11.72
2022-09-27T01:16:39.671Z,11.73
2022-09-27T01:21:40.599Z,11.72
2022-09-27T01:26:40.610Z,11.71
2022-09-27T01:31:41.316Z,11.69
2022-09-27T01:36:41.734Z,11.67
2022-09-27T01:41:46.571Z,11.66
2022-09-27T01:46:48.634Z,11.65
2022-09-27T01:51:48.795Z,11.63
2022-09-27T01:56:53.548Z,11.61
2022-09-27T02:01:54.235Z,11.60
2022-09-27T02:06:59.653Z,11.59
2022-09-27T02:12:01.715Z,11.58
2022-09-27T02:17:01.732Z,11.57
2022-09-27T02:22:01.730Z,11.56
2022-09-27T02:27:02.773Z,11.52
2022-09-27T02:32:03.015Z,11.49
2022-09-27T02:37:02.946Z,11.46
2022-09-27T02:42:03.090Z,11.45
2022-09-27T02:47:03.807Z,11.45
2022-09-27T02:52:03.760Z,11.47
2022-09-27T02:57:22.555Z,11.49
2022-09-27T03:02:30.680Z,11.51
2022-09-27T03:07:30.732Z,11.55
2022-09-27T03:12:30.789Z,11.57
2022-09-27T03:17:35.526Z,11.58
2022-09-27T03:22:35.803Z,11.57
2022-09-27T03:27:35.799Z,11.53
2022-09-27T03:32:54.476Z,11.49
2022-09-27T03:37:54.791Z,11.47
2022-09-27T03:42:54.936Z,11.47
2022-09-27T03:47:54.787Z,11.47
2022-09-27T03:52:55.172Z,11.45
2022-09-27T03:57:54.733Z,11.43
2022-09-27T04:02:56.649Z,11.40
2022-09-27T04:07:56.842Z,11.38
2022-09-27T04:12:58.777Z,11.35
2022-09-27T04:18:09.637Z,11.31
2022-09-27T04:23:11.544Z,11.27
2022-09-27T04:28:12.546Z,11.23
2022-09-27T04:33:31.203Z,11.19
2022-09-27T04:38:30.855Z,11.16
2022-09-27T04:43:30.987Z,11.13
2022-09-27T04:48:31.125Z,11.10
2022-09-27T04:53:31.482Z,11.06
2022-09-27T04:58:33.318Z,10.99
2022-09-27T05:03:34.663Z,10.92
2022-09-27T05:08:45.818Z,10.89
2022-09-27T05:13:45.840Z,10.86
2022-09-27T05:19:02.993Z,10.81
2022-09-27T05:24:02.810Z,10.76
2022-09-27T05:29:02.785Z,10.75
2022-09-27T05:34:04.659Z,10.76
2022-09-27T05:39:05.971Z,10.78
2022-09-27T05:44:06.401Z,10.81
2022-09-27T05:49:06.777Z,10.85
2022-09-27T05:54:07.043Z,10.91
2022-09-27T05:59:08.691Z,10.96
2022-09-27T06:04:28.801Z,11.02
2022-09-27T06:09:29.861Z,11.08
2022-09-27T06:14:31.692Z,11.17
2022-09-27T06:19:31.980Z,11.29
2022-09-27T06:24:33.758Z,11.42
2022-09-27T06:29:36.688Z,11.55
2022-09-27T06:34:37.811Z,11.72
2022-09-27T06:39:48.900Z,11.83
2022-09-27T06:45:08.152Z,11.83
2022-09-27T06:50:08.554Z,11.80
2022-09-27T06:55:09.447Z,11.80
2022-09-27T07:00:44.638Z,11.83
2022-09-27T07:05:46.789Z,11.92
2022-09-27T07:10:47.098Z,12.11
2022-09-27T07:15:48.812Z,12.22
2022-09-27T07:20:49.723Z,12.24
2022-09-27T07:25:51.646Z,12.24
2022-09-27T07:30:52.099Z,12.23
2022-09-27T07:35:52.028Z,12.23
2022-09-27T07:40:52.012Z,12.19
2022-09-27T07:46:09.142Z,12.15
2022-09-27T07:51:24.166Z,12.18
2022-09-27T07:56:24.123Z,12.23
2022-09-27T08:01:24.248Z,12.26
2022-09-27T08:06:25.859Z,12.32
2022-09-27T08:11:27.552Z,12.48
2022-09-27T08:16:48.259Z,12.71
2022-09-27T08:21:58.063Z,13.00
2022-09-27T08:26:56.866Z,13.43
2022-09-27T08:31:57.083Z,13.85
2022-09-27T08:36:58.305Z,14.09
2022-09-27T08:41:58.459Z,14.17
2022-09-27T08:46:59.000Z,14.07
2022-09-27T08:51:59.003Z,13.97
2022-09-27T08:57:00.241Z,13.95
2022-09-27T09:02:01.944Z,13.86
2022-09-27T09:07:03.475Z,13.65
2022-09-27T09:12:22.065Z,13.47
2022-09-27T09:17:23.807Z,13.40
2022-09-27T09:22:26.455Z,13.36
2022-09-27T09:27:26.270Z,13.43
2022-09-27T09:32:25.929Z,13.81
2022-09-27T09:37:28.245Z,14.38
2022-09-27T09:42:29.330Z,14.86
2022-09-27T09:47:29.762Z,15.19
2022-09-27T09:52:30.212Z,15.24
2022-09-27T09:57:30.441Z,15.19
2022-09-27T10:02:31.993Z,15.23
2022-09-27T10:07:32.582Z,15.26
2022-09-27T10:12:33.758Z,15.28
2022-09-27T10:17:35.012Z,15.29
2022-09-27T10:22:38.103Z,15.49
2022-09-27T10:27:40.010Z,15.72
2022-09-27T10:32:44.854Z,15.80
2022-09-27T10:37:47.039Z,15.80
2022-09-27T10:42:47.294Z,15.75
2022-09-27T10:47:54.841Z,15.76
2022-09-27T10:52:55.065Z,15.77
2022-09-27T10:57:55.333Z,15.90
2022-09-27T11:02:55.585Z,16.09
2022-09-27T11:07:56.951Z,16.02
2022-09-27T11:12:58.905Z,15.78
2022-09-27T11:17:59.889Z,15.59
2022-09-27T11:23:01.569Z,15.55
2022-09-27T11:28:02.943Z,15.79
2022-09-27T11:33:03.414Z,16.14
2022-09-27T11:38:03.072Z,16.56
2022-09-27T11:43:03.691Z,17.01
2022-09-27T11:48:04.683Z,17.36
2022-09-27T11:53:05.214Z,17.52
2022-09-27T11:58:05.830Z,17.52
2022-09-27T12:03:06.610Z,17.40
2022-09-27T12:08:07.356Z,17.32
2022-09-27T12:13:07.480Z,17.33
2022-09-27T12:18:07.390Z,17.33
2022-09-27T12:23:12.011Z,17.12
2022-09-27T12:28:12.250Z,16.65
2022-09-27T12:33:12.335Z,16.08
2022-09-27T12:38:12.102Z,15.71
2022-09-27T12:43:29.387Z,15.62
2022-09-27T12:48:29.165Z,15.75
2022-09-27T12:53:29.896Z,16.08
2022-09-27T12:58:30.248Z,16.33
2022-09-27T13:03:32.057Z,16.41
2022-09-27T13:08:32.980Z,16.32
2022-09-27T13:13:36.542Z,16.27
2022-09-27T13:18:35.830Z,16.09
2022-09-27T13:23:36.457Z,15.73
2022-09-27T13:28:39.624Z,15.48
2022-09-27T13:33:39.190Z,15.48
2022-09-27T13:38:39.772Z,15.75
2022-09-27T13:43:43.363Z,16.10
2022-09-27T13:48:47.518Z,16.29
2022-09-27T13:53:47.318Z,16.45
2022-09-27T13:58:49.112Z,16.73
2022-09-27T14:03:49.582Z,17.04
2022-09-27T14:08:49.777Z,17.27
2022-09-27T14:13:50.420Z,17.42
2022-09-27T14:18:54.387Z,17.52
2022-09-27T14:23:54.153Z,17.57
2022-09-27T14:29:05.179Z,17.58
2022-09-27T14:34:05.317Z,17.63
2022-09-27T14:39:07.133Z,17.56
2022-09-27T14:44:07.257Z,17.25
2022-09-27T14:49:07.300Z,16.86
2022-09-27T14:54:09.088Z,16.50
2022-09-27T14:59:09.431Z,16.19
2022-09-27T15:04:10.519Z,15.96
2022-09-27T15:09:12.105Z,15.90
2022-09-27T15:14:12.289Z,15.90
2022-09-27T15:19:12.240Z,15.87
2022-09-27T15:24:12.532Z,15.79
2022-09-27T15:29:12.343Z,15.66
2022-09-27T15:34:12.408Z,15.54
2022-09-27T15:39:12.289Z,15.34
2022-09-27T15:44:12.198Z,15.09
2022-09-27T15:49:12.302Z,14.89
2022-09-27T15:54:12.413Z,14.71
2022-09-27T15:59:12.387Z,14.52
2022-09-27T16:04:12.349Z,14.34
2022-09-27T16:09:12.290Z,14.17
2022-09-27T16:14:14.631Z,13.94
2022-09-27T16:19:14.413Z,13.66
2022-09-27T16:24:14.237Z,13.37
2022-09-27T16:29:14.611Z,13.08
2022-09-27T16:34:14.306Z,12.85
2022-09-27T16:39:14.376Z,12.67
2022-09-27T16:44:16.204Z,12.51
2022-09-27T16:49:34.754Z,12.39
2022-09-27T16:54:34.313Z,12.27
2022-09-27T16:59:34.387Z,12.15
2022-09-27T17:04:34.247Z,12.04
2022-09-27T17:09:34.320Z,11.95
2022-09-27T17:14:34.313Z,11.86
2022-09-27T17:19:34.331Z,11.76
2022-09-27T17:24:34.263Z,11.66
2022-09-27T17:29:34.381Z,11.57
2022-09-27T17:34:34.337Z,11.51
2022-09-27T17:39:34.388Z,11.46
2022-09-27T17:44:34.323Z,11.41
2022-09-27T17:49:52.643Z,11.35
2022-09-27T17:54:54.851Z,11.31
2022-09-27T17:59:54.311Z,11.29
2022-09-27T18:04:54.347Z,11.27
2022-09-27T18:09:54.358Z,11.23
2022-09-27T18:14:56.188Z,11.20
2022-09-27T18:19:57.351Z,11.17
2022-09-27T18:24:57.386Z,11.15
2022-09-27T18:29:59.372Z,11.15
2022-09-27T18:34:59.360Z,11.15
2022-09-27T18:39:59.385Z,11.14
2022-09-27T18:44:59.294Z,11.11
2022-09-27T18:49:59.534Z,11.08
2022-09-27T18:54:59.484Z,11.05
2022-09-27T19:00:03.506Z,11.02
2022-09-27T19:05:03.445Z,11.00
2022-09-27T19:10:04.596Z,10.99
2022-09-27T19:15:04.711Z,10.98
2022-09-27T19:20:06.275Z,10.93
2022-09-27T19:25:06.434Z,10.81
2022-09-27T19:30:06.514Z,10.65
2022-09-27T19:35:06.448Z,10.53
2022-09-27T19:40:06.357Z,10.50
2022-09-27T19:45:10.772Z,10.53
2022-09-27T19:50:08.338Z,10.58
2022-09-27T19:55:08.433Z,10.60
2022-09-27T20:00:08.367Z,10.57
2022-09-27T20:05:08.379Z,10.49
2022-09-27T20:10:08.493Z,10.39
2022-09-27T20:15:08.350Z,10.27
2022-09-27T20:20:08.614Z,10.18
2022-09-27T20:25:08.632Z,10.12
2022-09-27T20:30:08.518Z,10.08
2022-09-27T20:35:10.294Z,10.05
2022-09-27T20:40:10.770Z,10.04
2022-09-27T20:45:10.571Z,10.06
2022-09-27T20:50:10.439Z,10.09
2022-09-27T20:55:11.378Z,10.13
2022-09-27T21:00:11.478Z,10.15
2022-09-27T21:05:11.727Z,10.15
2022-09-27T21:10:11.367Z,10.13
2022-09-27T21:15:11.443Z,10.12
2022-09-27T21:20:11.407Z,10.13
2022-09-27T21:25:11.421Z,10.14
2022-09-27T21:30:11.471Z,10.16
2022-09-27T21:35:11.383Z,10.20
2022-09-27T21:40:11.715Z,10.24
2022-09-27T21:45:11.698Z,10.28
2022-09-27T21:50:11.484Z,10.32
2022-09-27T21:55:11.414Z,10.36
2022-09-27T22:00:11.540Z,10.38
2022-09-27T22:05:11.475Z,10.37
2022-09-27T22:10:11.926Z,10.34
2022-09-27T22:15:11.925Z,10.30
2022-09-27T22:20:11.494Z,10.25
2022-09-27T22:25:11.460Z,10.23
2022-09-27T22:30:11.455Z,10.23
2022-09-27T22:35:11.504Z,10.24
2022-09-27T22:40:11.537Z,10.25
2022-09-27T22:45:11.478Z,10.24
2022-09-27T22:50:11.519Z,10.24
2022-09-27T22:55:11.543Z,10.24
2022-09-27T23:00:11.514Z,10.25
2022-09-27T23:05:11.513Z,10.25
2022-09-27T23:10:12.434Z,10.27
2022-09-27T23:15:13.464Z,10.28
2022-09-27T23:20:13.778Z,10.28
2022-09-27T23:25:13.494Z,10.28
2022-09-27T23:30:13.687Z,10.29
2022-09-27T23:35:13.578Z,10.30
2022-09-27T23:40:13.496Z,10.32
2022-09-27T23:45:15.369Z,10.33
2022-09-27T23:50:15.528Z,10.35
2022-09-27T23:55:15.542Z,10.37
